Time;durP1;ratioP1;P1;durP2;ratioP2;P2;SDS_P1;SDS_P2;PMS_P1;PMS_P2;Temp;Humidity;BMP_temperature;BMP_pressure;BME280_temperature;BME280_humidity;BME280_pressure;Samples;Min_cycle;Max_cycle;Signal;HPM_P1;HPM_P2
2022/03/15 05:56:29;;;;;;;;;;;;;;;2.62;90.18;100553.16;5717860;23;20399;-79
2022/03/15 05:58:54;;;;;;;;;;;;;;;2.65;90.01;100569.75;5010283;28;20450;-80
2022/03/15 06:01:19;;;;;;;;;;;;;;;2.70;89.33;100557.53;5011916;28;19922;-80
2022/03/15 06:03:45;;;;;;;;;;;;;;;2.60;89.25;100553.16;5012765;28;20421;-80
2022/03/15 06:06:10;;;;;;;;;;;;;;;2.59;89.09;100556.66;5012571;28;19925;-80
2022/03/15 06:08:36;;;;;;;;;;;;;;;2.58;88.99;100554.88;5012498;28;19921;-79
2022/03/15 06:11:02;;;;;;;;;;;;;;;2.60;88.88;100545.31;5011078;28;19917;-80
2022/03/15 06:13:28;;;;;;;;;;;;;;;2.58;88.95;100554.03;5010935;28;19971;-80
2022/03/15 06:15:53;;;;;;;;;;;;;;;2.63;88.53;100553.19;5010814;28;20364;-81
2022/03/15 06:18:18;;;;;;;;;;;;;;;2.56;88.18;100548.78;5010288;28;19921;-79
2022/03/15 06:20:43;;;;;;;;;;;;;;;2.53;87.79;100548.78;5012518;28;19921;-80
2022/03/15 06:23:09;;;;;;;;;;;;;;;2.54;87.62;100546.16;5012557;28;19918;-81
2022/03/15 06:25:35;;;;;;;;;;;;;;;2.47;87.48;100533.97;5008551;28;20007;-81
2022/03/15 06:28:00;;;;;;;;;;;;;;;2.50;87.42;100538.31;5012172;28;19917;-81
2022/03/15 06:30:26;;;;;;;;;;;;;;;2.52;87.32;100537.44;5010908;28;19944;-81
2022/03/15 06:32:51;;;;;;;;;;;;;;;2.53;87.18;100535.69;5009599;28;19921;-81
2022/03/15 06:35:19;;;;;;;;;;;;;;;2.46;87.11;100526.09;5012298;28;19933;-81
2022/03/15 06:37:45;;;;;;;;;;;;;;;2.51;87.05;100521.75;5011927;28;19918;-81
2022/03/15 06:40:11;;;;;;;;;;;;;;;2.51;86.91;100529.59;5009465;28;20425;-81
2022/03/15 06:42:38;;;;;;;;;;;;;;;2.69;89.25;100524.38;5012306;28;20444;-81
2022/03/15 06:45:03;;;;;;;;;;;;;;;2.88;90.56;100529.63;5012104;28;19968;-82
2022/03/15 06:47:28;;;;;;;;;;;;;;;2.83;90.45;100524.38;5011998;28;19964;-82
2022/03/15 06:49:54;;;;;;;;;;;;;;;2.79;90.43;100524.38;5011676;28;19917;-82
2022/03/15 06:52:19;;;;;;;;;;;;;;;2.72;90.24;100513.91;5010696;28;19917;-82
2022/03/15 06:54:44;;;;;;;;;;;;;;;2.80;89.94;100495.59;5010606;28;19933;-82
2022/03/15 06:57:10;;;;;;;;;;;;;;;2.75;89.63;100509.56;5008325;28;19957;-82
2022/03/15 06:59:35;;;;;;;;;;;;;;;2.72;89.40;100513.03;5010675;28;20360;-83
2022/03/15 07:02:00;;;;;;;;;;;;;;;2.62;89.67;100509.56;5011843;28;19922;-82
2022/03/15 07:04:26;;;;;;;;;;;;;;;2.61;89.85;100515.63;5011890;28;19924;-82
2022/03/15 07:06:51;;;;;;;;;;;;;;;2.64;89.80;100499.94;5011586;28;19922;-82
2022/03/15 07:09:16;;;;;;;;;;;;;;;2.66;89.81;100505.19;5010465;28;20431;-82
2022/03/15 07:11:41;;;;;;;;;;;;;;;2.62;89.76;100499.09;5010322;28;19928;-82
2022/03/15 07:14:07;;;;;;;;;;;;;;;2.61;89.84;100507.78;5011855;28;19925;-83
2022/03/15 07:16:32;;;;;;;;;;;;;;;2.62;89.56;100496.47;5011695;28;19922;-83
2022/03/15 07:18:57;;;;;;;;;;;;;;;2.56;89.46;100498.22;5010449;28;19922;-82
2022/03/15 07:21:23;;;;;;;;;;;;;;;2.57;89.25;100492.97;5011676;28;19921;-82
2022/03/15 07:23:48;;;;;;;;;;;;;;;2.57;89.14;100485.13;5011468;28;19972;-83
2022/03/15 07:26:14;;;;;;;;;;;;;;;2.51;89.03;100485.97;5010204;28;19917;-82
2022/03/15 07:28:39;;;;;;;;;;;;;;;2.54;88.87;100485.13;5010199;28;19968;-82
2022/03/15 07:31:05;;;;;;;;;;;;;;;2.57;88.56;100492.97;5011786;28;19921;-82
2022/03/15 08:58:38;;;;;;;;;;;;;;;2.64;82.47;100394.41;4996592;28;19936;-85
2022/03/15 09:01:04;;;;;;;;;;;;;;;2.63;82.40;100390.94;5009376;28;19922;-86
2022/03/15 09:03:29;;;;;;;;;;;;;;;2.61;82.28;100392.66;5008974;28;19921;-86
2022/03/15 09:05:54;;;;;;;;;;;;;;;2.64;82.20;100386.56;5013247;28;20352;-86
2022/03/15 09:08:20;;;;;;;;;;;;;;;2.69;82.29;100387.44;5009561;28;20087;-86
2022/03/15 09:10:45;;;;;;;;;;;;;;;2.70;82.17;100370.88;5008294;28;20445;-86
2022/03/15 09:13:11;;;;;;;;;;;;;;;2.71;82.46;100365.63;5010840;28;19929;-86
2022/03/15 09:15:37;;;;;;;;;;;;;;;2.78;82.28;100368.25;5009427;28;20376;-86
2022/03/15 09:18:02;;;;;;;;;;;;;;;2.76;82.23;100364.72;5013100;28;19921;-86
2022/03/15 09:20:27;;;;;;;;;;;;;;;2.72;81.75;100362.13;5010779;28;19922;-85
2022/03/15 09:22:53;;;;;;;;;;;;;;;2.76;81.59;100367.34;5013222;28;19918;-86
2022/03/15 09:25:19;;;;;;;;;;;;;;;2.75;81.11;100355.16;5007001;28;20413;-86
2022/03/15 09:27:46;;;;;;;;;;;;;;;2.75;80.77;100349.91;5007869;28;19930;-86
2022/03/15 09:30:12;;;;;;;;;;;;;;;2.75;80.81;100349.91;5010065;28;20028;-85
2022/03/15 09:32:37;;;;;;;;;;;;;;;2.78;80.73;100344.69;5008384;28;20020;-85
2022/03/15 09:35:02;;;;;;;;;;;;;;;2.77;80.31;100335.06;5011896;28;20303;-86
2022/03/15 09:37:28;;;;;;;;;;;;;;;2.79;80.14;100330.69;5010291;28;19921;-86
2022/03/15 09:39:57;;;;;;;;;;;;;;;2.78;79.93;100329.84;5008439;28;20407;-86
2022/03/15 09:42:23;;;;;;;;;;;;;;;2.83;80.05;100327.22;5009488;28;20460;-84
2022/03/15 09:44:48;;;;;;;;;;;;;;;2.82;80.06;100333.31;5011646;28;20016;-85
2022/03/15 09:47:15;;;;;;;;;;;;;;;2.88;80.16;100330.69;5009301;28;20009;-85
2022/03/15 09:49:43;;;;;;;;;;;;;;;2.85;80.06;100314.97;5010897;28;19921;-84
2022/03/15 09:52:10;;;;;;;;;;;;;;;2.88;80.16;100304.50;5012861;28;19924;-85
2022/03/15 09:54:36;;;;;;;;;;;;;;;2.91;80.17;100312.34;5008591;28;19976;-85
2022/03/15 09:57:03;;;;;;;;;;;;;;;2.89;80.09;100314.13;5010647;28;19980;-85
2022/03/15 09:59:28;;;;;;;;;;;;;;;2.88;79.83;100310.59;5026122;28;20408;-86
2022/03/15 10:01:55;;;;;;;;;;;;;;;2.91;79.89;100301.88;5009102;28;19975;-85
2022/03/15 10:04:22;;;;;;;;;;;;;;;2.91;79.83;100292.28;5009810;28;19984;-85
2022/03/15 10:06:48;;;;;;;;;;;;;;;2.91;79.69;100283.56;5010903;28;19968;-85
2022/03/15 10:09:13;;;;;;;;;;;;;;;2.92;79.60;100285.31;5011245;28;20872;-85
2022/03/15 10:11:38;;;;;;;;;;;;;;;2.95;79.67;100274.78;5010185;28;20427;-85
2022/03/15 10:14:05;;;;;;;;;;;;;;;2.99;79.77;100268.69;5011032;28;19975;-84
2022/03/15 10:16:34;;;;;;;;;;;;;;;2.97;79.57;100262.59;5008756;28;19972;-85
2022/03/15 10:19:00;;;;;;;;;;;;;;;2.98;79.45;100268.69;5009875;28;19925;-84
2022/03/15 10:21:37;;;;;;;;;;;;;;;2.99;79.42;100255.59;5008093;28;19928;-82
2022/03/15 10:24:02;;;;;;;;;;;;;;;2.98;79.00;100253.84;5026720;28;20283;-82
2022/03/15 10:26:28;;;;;;;;;;;;;;;2.98;78.76;100258.22;5008898;28;19921;-82
2022/03/15 10:28:54;;;;;;;;;;;;;;;3.01;78.61;100256.44;5008245;28;19925;-82
2022/03/15 10:31:23;;;;;;;;;;;;;;;3.01;78.61;100248.59;5009513;28;20281;-82
2022/03/15 10:33:52;;;;;;;;;;;;;;;5.46;86.49;100248.03;5011858;28;19921;-75
2022/03/15 10:36:19;;;;;;;;;;;;;;;4.53;85.27;100240.44;5011903;28;19926;-82
2022/03/15 10:38:45;;;;;;;;;;;;;;;3.89;84.94;100226.19;5011189;28;19922;-81
2022/03/15 10:41:13;;;;;;;;;;;;;;;3.65;84.09;100225.50;5010725;28;19917;-81
2022/03/15 10:43:38;;;;;;;;;;;;;;;3.55;83.08;100213.38;5011176;28;19922;-82
2022/03/15 10:46:03;;;;;;;;;;;;;;;3.47;82.11;100221.28;5007781;28;19976;-82
2022/03/15 10:48:30;;;;;;;;;;;;;;;3.42;81.34;100230.94;5009420;28;19937;-81
2022/03/15 10:51:04;;;;;;;;;;;;;;;3.44;80.89;100214.31;5009730;28;20367;-81
2022/03/15 10:53:39;;;;;;;;;;;;;;;3.39;80.50;100208.22;5010687;28;19933;-81
2022/03/15 10:56:20;;;;;;;;;;;;;;;3.36;79.89;100213.47;5009074;28;19937;-81
2022/03/15 10:58:47;;;;;;;;;;;;;;;3.35;79.43;100201.28;5009253;28;19928;-81
2022/03/15 11:01:12;;;;;;;;;;;;;;;3.38;79.24;100200.38;5010238;28;19921;-81
2022/03/15 11:03:38;;;;;;;;;;;;;;;3.38;79.21;100201.28;5010195;28;19925;-81
2022/03/15 11:06:08;;;;;;;;;;;;;;;3.39;79.07;100212.59;5006260;28;20292;-81
2022/03/15 11:08:34;;;;;;;;;;;;;;;3.37;78.76;100210.00;5010426;28;19968;-81
2022/03/15 11:11:05;;;;;;;;;;;;;;;3.39;78.64;100205.59;5010870;28;19976;-81
2022/03/15 11:13:31;;;;;;;;;;;;;;;3.38;78.45;100205.63;5010076;28;19926;-81
2022/03/15 11:15:57;;;;;;;;;;;;;;;3.38;78.41;100200.38;5013222;28;19928;-81
2022/03/15 11:18:25;;;;;;;;;;;;;;;3.40;78.34;100182.91;5011255;28;19922;-81
2022/03/15 11:20:51;;;;;;;;;;;;;;;3.40;78.03;100194.25;5013292;28;20292;-81
2022/03/15 11:23:18;;;;;;;;;;;;;;;3.40;78.01;100180.31;5014156;28;19936;-81
2022/03/15 11:25:45;;;;;;;;;;;;;;;3.42;77.99;100153.19;5029996;28;19972;-81
2022/03/15 11:28:16;;;;;;;;;;;;;;;3.40;77.87;100152.34;5011608;28;20039;-81
2022/03/15 11:30:42;;;;;;;;;;;;;;;3.41;77.80;100147.97;5013467;28;20401;-81
2022/03/15 11:33:08;;;;;;;;;;;;;;;3.42;77.72;100140.09;5010662;28;19952;-81
2022/03/15 11:35:35;;;;;;;;;;;;;;;3.46;77.79;100143.56;5012757;28;19967;-81
2022/03/15 11:38:02;;;;;;;;;;;;;;;3.47;77.60;100139.19;5012216;28;19930;-81
2022/03/15 11:40:29;;;;;;;;;;;;;;;3.47;77.60;100141.81;5012421;28;19928;-81
2022/03/15 11:43:20;;;;;;;;;;;;;;;3.47;77.30;100145.31;5009584;28;19929;-82
2022/03/15 11:46:00;;;;;;;;;;;;;;;3.48;77.18;100135.69;4982221;28;19929;-82
2022/03/15 11:48:36;;;;;;;;;;;;;;;3.50;76.90;100132.19;5012421;28;19972;-82
2022/03/15 11:51:07;;;;;;;;;;;;;;;3.49;76.86;100132.19;5013164;28;19925;-82
2022/03/15 11:53:41;;;;;;;;;;;;;;;3.53;77.02;100133.91;5012632;28;19929;-81
2022/03/15 11:56:22;;;;;;;;;;;;;;;3.54;77.09;100126.03;5012441;28;19991;-81
2022/03/15 11:58:51;;;;;;;;;;;;;;;3.55;77.24;100122.53;5012802;28;19945;-81
2022/03/15 12:01:17;;;;;;;;;;;;;;;3.57;77.18;100112.03;5010656;28;20025;-81
2022/03/15 12:03:47;;;;;;;;;;;;;;;3.57;76.88;100109.41;5011646;28;20012;-82
2022/03/15 12:06:16;;;;;;;;;;;;;;;3.57;76.68;100106.78;5010429;28;19925;-81
2022/03/15 12:08:43;;;;;;;;;;;;;;;3.57;76.55;100101.53;5011188;28;19969;-81
2022/03/15 12:11:08;;;;;;;;;;;;;;;3.60;76.57;100086.66;5010924;28;20287;-82
2022/03/15 12:13:36;;;;;;;;;;;;;;;3.61;76.63;100093.63;5012644;28;19921;-81
2022/03/15 12:16:24;;;;;;;;;;;;;;;3.62;76.51;100099.75;5013176;28;19969;-82
2022/03/15 12:19:05;;;;;;;;;;;;;;;3.66;76.59;100109.31;5013267;28;19924;-81
2022/03/15 12:21:31;;;;;;;;;;;;;;;3.64;76.55;100108.47;5028313;28;19924;-81
2022/03/15 12:23:56;;;;;;;;;;;;;;;3.65;76.68;100094.47;5014091;28;19917;-81
2022/03/15 12:26:28;;;;;;;;;;;;;;;3.66;76.41;100092.75;5013057;28;20028;-81
2022/03/15 12:28:54;;;;;;;;;;;;;;;3.68;76.46;100094.44;5013117;28;20455;-82
2022/03/15 12:31:20;;;;;;;;;;;;;;;3.70;76.74;100087.47;5013560;28;19921;-81
2022/03/15 12:33:59;;;;;;;;;;;;;;;3.70;76.83;100084.84;5012330;28;19968;-81
2022/03/15 12:36:34;;;;;;;;;;;;;;;3.74;76.86;100094.38;5012078;28;19922;-82
2022/03/15 12:39:06;;;;;;;;;;;;;;;3.76;77.19;100084.75;5011366;28;19925;-81
2022/03/15 12:41:32;;;;;;;;;;;;;;;3.76;77.50;100083.88;5008508;28;19929;-81
2022/03/15 12:43:57;;;;;;;;;;;;;;;3.78;77.68;100079.50;5012352;28;19922;-82
2022/03/15 12:46:30;;;;;;;;;;;;;;;3.77;77.87;100073.38;5014099;28;19922;-82
2022/03/15 12:48:55;;;;;;;;;;;;;;;3.82;77.86;100081.22;5011122;28;20027;-81
2022/03/15 12:51:21;;;;;;;;;;;;;;;3.96;78.79;100078.44;5012571;28;20468;-81
2022/03/15 12:53:48;;;;;;;;;;;;;;;4.10;80.69;100071.28;5011399;28;19921;-81
2022/03/15 12:56:14;;;;;;;;;;;;;;;4.17;82.67;100078.19;4994632;28;19929;-81
2022/03/15 12:58:40;;;;;;;;;;;;;;;4.21;84.61;100079.00;5010407;28;19921;-82
2022/03/15 13:01:07;;;;;;;;;;;;;;;4.22;86.14;100090.38;5007969;28;19925;-81
2022/03/15 13:03:32;;;;;;;;;;;;;;;4.18;87.34;100090.41;5011774;28;20134;-81
2022/03/15 13:05:58;;;;;;;;;;;;;;;4.13;88.15;100087.00;5012194;28;20296;-81
2022/03/15 13:08:23;;;;;;;;;;;;;;;4.06;88.94;100072.19;5010432;28;19929;-81
2022/03/15 13:10:49;;;;;;;;;;;;;;;3.96;89.65;100078.44;5011153;28;19932;-82
2022/03/15 13:13:15;;;;;;;;;;;;;;;3.86;90.24;100079.41;5010436;28;19928;-81
2022/03/15 13:16:01;;;;;;;;;;;;;;;3.77;90.73;100094.34;5010690;28;19944;-81
2022/03/15 13:18:27;;;;;;;;;;;;;;;3.72;91.37;100097.91;5012124;28;19933;-81
2022/03/15 13:21:03;;;;;;;;;;;;;;;3.77;91.76;100094.34;5027712;28;19926;-81
2022/03/15 13:23:29;;;;;;;;;;;;;;;3.84;92.85;100105.66;5010072;28;19929;-81
2022/03/15 13:26:04;;;;;;;;;;;;;;;3.85;95.01;100107.38;5010088;28;20008;-81
2022/03/15 13:28:32;;;;;;;;;;;;;;;4.04;98.97;100089.72;5008561;28;19926;-81
2022/03/15 13:31:01;;;;;;;;;;;;;;;4.35;100.00;100091.97;5011697;28;20369;-81
2022/03/15 13:33:38;;;;;;;;;;;;;;;4.46;100.00;100094.44;5011932;28;19924;-81
2022/03/15 13:36:10;;;;;;;;;;;;;;;4.53;100.00;100096.97;5007278;28;19929;-81
2022/03/15 13:38:55;;;;;;;;;;;;;;;4.63;100.00;100078.50;5013018;28;19917;-82
2022/03/15 13:41:22;;;;;;;;;;;;;;;4.72;100.00;100070.47;5011778;28;19926;-81
2022/03/15 13:43:48;;;;;;;;;;;;;;;4.77;100.00;100076.53;5011621;28;19944;-81
2022/03/15 13:46:15;;;;;;;;;;;;;;;4.79;100.00;100072.13;5012167;28;19972;-81
2022/03/15 13:48:41;;;;;;;;;;;;;;;4.83;100.00;100072.94;5012324;28;20008;-82
2022/03/15 13:51:14;;;;;;;;;;;;;;;4.85;100.00;100060.66;5010513;28;20052;-82
2022/03/15 13:53:43;;;;;;;;;;;;;;;4.90;100.00;100058.84;5026838;28;19933;-82
2022/03/15 13:56:12;;;;;;;;;;;;;;;4.94;100.00;100055.25;5008631;28;20019;-81
2022/03/15 13:58:38;;;;;;;;;;;;;;;4.97;100.00;100036.84;5008313;28;19928;-81
2022/03/15 14:01:04;;;;;;;;;;;;;;;4.97;100.00;100044.72;5012432;28;19921;-82
2022/03/15 14:03:30;;;;;;;;;;;;;;;4.99;100.00;100053.44;5009347;28;19928;-82
2022/03/15 14:05:59;;;;;;;;;;;;;;;5.00;100.00;100062.19;5009741;28;19921;-81
2022/03/15 14:08:25;;;;;;;;;;;;;;;5.04;100.00;100061.22;5011247;28;19922;-81
2022/03/15 14:10:53;;;;;;;;;;;;;;;5.05;100.00;100062.97;5011577;28;20024;-81
2022/03/15 14:13:23;;;;;;;;;;;;;;;5.08;100.00;100065.56;5009076;28;19922;-81
2022/03/15 14:15:49;;;;;;;;;;;;;;;5.13;100.00;100066.34;5010981;28;19922;-81
2022/03/15 14:18:25;;;;;;;;;;;;;;;5.12;100.00;100067.22;5010026;28;19925;-82
2022/03/15 14:20:51;;;;;;;;;;;;;;;5.11;100.00;100073.41;5008802;28;19932;-81
2022/03/15 14:23:17;;;;;;;;;;;;;;;5.13;100.00;100076.84;5009369;28;20388;-81
2022/03/15 14:25:42;;;;;;;;;;;;;;;5.16;100.00;100074.19;5010644;28;19980;-81
2022/03/15 14:28:09;;;;;;;;;;;;;;;4.34;100.00;100084.97;5006422;28;19941;-81
2022/03/15 14:30:36;;;;;;;;;;;;;;;3.80;100.00;100081.22;5010855;28;19925;-81
2022/03/15 14:33:12;;;;;;;;;;;;;;;3.80;100.00;100068.13;5010024;28;19922;-81
2022/03/15 14:35:38;;;;;;;;;;;;;;;3.75;100.00;100069.03;5008664;28;20297;-81
2022/03/15 14:38:13;;;;;;;;;;;;;;;3.67;100.00;100066.53;5008520;28;19921;-81
2022/03/15 14:40:46;;;;;;;;;;;;;;;3.42;100.00;100074.59;5005439;28;20477;-81
2022/03/15 14:43:19;;;;;;;;;;;;;;;3.49;100.00;100066.69;5008627;28;19921;-82
2022/03/15 14:45:45;;;;;;;;;;;;;;;3.38;100.00;100070.28;5006815;28;19937;-81
2022/03/15 14:48:21;;;;;;;;;;;;;;;3.34;100.00;100068.56;5022585;28;19925;-81
2022/03/15 14:50:46;;;;;;;;;;;;;;;3.36;100.00;100077.28;5015508;28;19929;-80
2022/03/15 14:53:11;;;;;;;;;;;;;;;3.33;99.63;100072.06;5012958;28;19932;-80
2022/03/15 14:55:37;;;;;;;;;;;;;;;3.28;98.75;100063.38;5014269;28;19922;-82
2022/03/15 14:58:03;;;;;;;;;;;;;;;3.19;98.09;100058.22;5012729;28;20368;-80
2022/03/15 15:00:28;;;;;;;;;;;;;;;3.18;97.71;100069.59;5012421;28;19922;-81
2022/03/15 15:02:54;;;;;;;;;;;;;;;3.20;97.08;100065.19;5013753;28;19925;-81
2022/03/15 15:05:19;;;;;;;;;;;;;;;3.17;96.84;100062.59;5014109;28;20376;-81
2022/03/15 15:07:45;;;;;;;;;;;;;;;3.24;96.17;100062.53;5012656;28;20391;-81
2022/03/15 15:10:10;;;;;;;;;;;;;;;3.17;95.29;100059.97;5013725;28;20008;-82
2022/03/15 15:12:35;;;;;;;;;;;;;;;3.09;95.06;100055.69;5013345;28;19926;-80
2022/03/15 15:15:02;;;;;;;;;;;;;;;3.12;94.81;100051.31;5010297;28;19922;-81
2022/03/15 15:17:30;;;;;;;;;;;;;;;3.00;94.53;100053.13;5013737;28;20395;-80
2022/03/15 15:19:55;;;;;;;;;;;;;;;3.11;93.94;100044.31;5028834;28;20064;-81
2022/03/15 15:22:22;;;;;;;;;;;;;;;2.96;93.23;100053.16;5011856;28;20416;-81
2022/03/15 15:24:48;;;;;;;;;;;;;;;3.02;92.77;100051.38;5012599;28;19926;-81
2022/03/15 15:27:13;;;;;;;;;;;;;;;2.91;92.00;100047.97;5011501;28;19925;-81
2022/03/15 15:29:39;;;;;;;;;;;;;;;3.00;91.94;100044.41;5011560;28;19930;-81
2022/03/15 15:32:05;;;;;;;;;;;;;;;2.98;91.65;100044.41;5013688;28;19928;-81
2022/03/15 15:34:31;;;;;;;;;;;;;;;2.86;91.10;100045.38;5011859;28;19948;-81
2022/03/15 15:37:00;;;;;;;;;;;;;;;2.99;90.77;100042.69;5014569;28;20023;-81
2022/03/15 15:39:28;;;;;;;;;;;;;;;2.84;90.80;100038.41;5013281;28;19922;-81
2022/03/15 15:41:54;;;;;;;;;;;;;;;2.92;90.38;100044.47;5011941;28;19974;-81
2022/03/15 15:44:27;;;;;;;;;;;;;;;2.91;89.86;100043.59;5013277;28;19929;-81
2022/03/15 15:46:54;;;;;;;;;;;;;;;2.87;89.74;100044.50;5012817;28;19928;-81
2022/03/15 15:49:19;;;;;;;;;;;;;;;2.94;89.15;100037.47;5014724;28;19975;-81
2022/03/15 15:51:45;;;;;;;;;;;;;;;2.77;88.73;100039.34;4996712;28;19921;-81
2022/03/15 15:54:10;;;;;;;;;;;;;;;2.88;88.97;100042.75;5013708;28;19933;-81
2022/03/15 15:56:36;;;;;;;;;;;;;;;2.79;88.70;100048.03;5010594;28;19953;-81
2022/03/15 15:59:01;;;;;;;;;;;;;;;2.72;89.07;100047.22;5013489;28;20446;-81
2022/03/15 16:01:30;;;;;;;;;;;;;;;2.71;89.05;100048.97;5010821;28;19925;-81
2022/03/15 16:03:57;;;;;;;;;;;;;;;2.68;88.99;100046.38;5013341;28;19928;-81
2022/03/15 16:06:23;;;;;;;;;;;;;;;2.67;88.82;100054.25;5009893;28;19956;-81
2022/03/15 16:08:48;;;;;;;;;;;;;;;2.78;88.55;100056.78;5011356;28;20358;-81
2022/03/15 16:11:17;;;;;;;;;;;;;;;2.68;88.28;100059.47;5007551;28;19922;-81
2022/03/15 16:13:43;;;;;;;;;;;;;;;2.69;88.26;100062.94;5008733;28;19929;-81
2022/03/15 16:16:09;;;;;;;;;;;;;;;2.75;87.90;100076.00;5012189;28;19928;-81
2022/03/15 16:18:34;;;;;;;;;;;;;;;2.73;87.73;100080.38;5008989;28;19936;-81
2022/03/15 16:21:00;;;;;;;;;;;;;;;2.70;87.65;100078.63;5012013;28;20387;-81
2022/03/15 16:23:25;;;;;;;;;;;;;;;2.64;87.33;100075.19;5011851;28;19929;-81
2022/03/15 16:25:51;;;;;;;;;;;;;;;2.70;87.25;100078.63;5007954;28;19929;-81
2022/03/15 16:28:16;;;;;;;;;;;;;;;2.63;87.59;100090.03;5006730;28;20523;-81
2022/03/15 16:30:41;;;;;;;;;;;;;;;2.64;88.03;100096.97;5009644;28;19926;-81
2022/03/15 16:33:07;;;;;;;;;;;;;;;2.71;87.85;100103.03;5014118;28;20372;-81
2022/03/15 16:35:32;;;;;;;;;;;;;;;2.71;87.61;100103.94;5013041;28;19930;-81
2022/03/15 16:37:58;;;;;;;;;;;;;;;2.64;87.78;100111.81;5012733;28;19924;-81
2022/03/15 16:40:23;;;;;;;;;;;;;;;2.62;87.89;100103.13;5013006;28;20350;-81
2022/03/15 16:42:50;;;;;;;;;;;;;;;2.66;87.73;100110.06;5012994;28;19917;-81
2022/03/15 16:45:16;;;;;;;;;;;;;;;2.64;87.25;100112.69;5012642;28;20391;-81
2022/03/15 16:47:42;;;;;;;;;;;;;;;2.62;87.23;100118.81;5011026;28;19932;-81
2022/03/15 16:50:07;;;;;;;;;;;;;;;2.69;87.42;100118.75;5013884;28;19921;-81
2022/03/15 16:52:33;;;;;;;;;;;;;;;2.68;86.68;100116.13;5012692;28;20000;-82
2022/03/15 16:54:58;;;;;;;;;;;;;;;2.61;86.51;100122.31;5012187;28;19996;-82
2022/03/15 16:57:28;;;;;;;;;;;;;;;2.59;86.73;100124.06;5012476;28;19921;-82
2022/03/15 16:59:54;;;;;;;;;;;;;;;2.62;86.73;100121.44;5013273;28;19926;-82
2022/03/15 17:02:19;;;;;;;;;;;;;;;2.64;86.71;100127.53;5028716;28;19924;-81
2022/03/15 17:07:30;;;;;;;;;;;;;;;2.59;86.74;100135.38;5012731;28;19928;-81
2022/03/15 17:09:55;;;;;;;;;;;;;;;2.57;86.84;100136.25;5012276;28;19917;-81
2022/03/15 17:12:20;;;;;;;;;;;;;;;2.69;86.33;100137.06;5010115;28;19917;-82
2022/03/15 17:14:47;;;;;;;;;;;;;;;2.63;85.98;100136.25;5007677;28;19944;-82
2022/03/15 17:17:13;;;;;;;;;;;;;;;2.62;85.80;100132.75;5011917;28;19921;-82
2022/03/15 17:19:42;;;;;;;;;;;;;;;2.66;85.76;100141.44;5012130;28;19918;-82
2022/03/15 17:22:08;;;;;;;;;;;;;;;2.69;85.36;100139.69;5011997;28;19929;-82
2022/03/15 17:24:39;;;;;;;;;;;;;;;2.69;85.12;100142.31;5012684;28;19918;-82
2022/03/15 17:27:05;;;;;;;;;;;;;;;2.61;84.88;100131.00;5010651;28;19921;-82
2022/03/15 17:29:31;;;;;;;;;;;;;;;2.50;84.64;100125.81;5013206;28;19917;-82
2022/03/15 17:31:58;;;;;;;;;;;;;;;2.63;84.16;100146.69;5011880;28;19929;-82
2022/03/15 17:34:24;;;;;;;;;;;;;;;2.58;84.18;100149.34;5010904;28;19979;-82
2022/03/15 17:36:55;;;;;;;;;;;;;;;2.52;84.43;100145.03;5011816;28;19965;-82
2022/03/15 17:39:20;;;;;;;;;;;;;;;2.55;84.71;100162.44;5012807;28;19917;-82
2022/03/15 17:41:56;;;;;;;;;;;;;;;2.51;84.66;100156.34;5011742;28;19975;-81
2022/03/15 17:44:22;;;;;;;;;;;;;;;2.56;84.75;100151.09;5010984;28;20015;-81
2022/03/15 17:46:48;;;;;;;;;;;;;;;2.58;84.53;100154.56;5011555;28;20012;-81
2022/03/15 17:49:14;;;;;;;;;;;;;;;2.58;84.76;100157.19;5011312;28;19917;-82
2022/03/15 17:51:40;;;;;;;;;;;;;;;2.61;84.59;100159.78;5010993;28;19947;-81
2022/03/15 17:54:10;;;;;;;;;;;;;;;2.51;84.78;100171.19;5012717;28;19917;-81
2022/03/15 17:56:40;;;;;;;;;;;;;;;2.53;84.96;100172.03;5010905;28;20032;-82
2022/03/15 17:59:14;;;;;;;;;;;;;;;2.54;84.77;100184.25;5027035;28;19921;-81
2022/03/15 18:01:47;;;;;;;;;;;;;;;2.59;84.68;100187.72;5006664;28;19936;-82
2022/03/15 18:04:13;;;;;;;;;;;;;;;2.53;84.46;100196.44;5010986;28;19996;-81
2022/03/15 18:06:41;;;;;;;;;;;;;;;2.56;84.22;100200.81;5008641;28;19921;-81
2022/03/15 18:09:19;;;;;;;;;;;;;;;2.52;84.29;100204.28;5023608;28;19921;-86
2022/03/15 18:11:46;;;;;;;;;;;;;;;2.52;84.26;100207.81;5022629;28;19921;-86
2022/03/15 18:14:12;;;;;;;;;;;;;;;2.51;84.16;100205.19;5010636;28;19972;-84
2022/03/15 18:16:39;;;;;;;;;;;;;;;2.51;84.26;100207.81;5008346;28;19953;-84
2022/03/15 18:19:06;;;;;;;;;;;;;;;2.56;84.66;100211.28;5010809;28;20043;-85
2022/03/15 18:21:35;;;;;;;;;;;;;;;2.60;84.63;100209.50;5011779;28;19952;-89
2022/03/15 18:24:06;;;;;;;;;;;;;;;2.55;84.59;100196.44;5009346;28;19925;-89
2022/03/15 18:26:34;;;;;;;;;;;;;;;2.55;84.39;100206.91;5010475;28;19968;-87
2022/03/15 18:28:59;;;;;;;;;;;;;;;2.52;84.28;100206.91;5011513;28;19948;-88
2022/03/15 18:31:25;;;;;;;;;;;;;;;2.53;83.77;100203.44;5009566;28;20356;-88
2022/03/15 18:33:54;;;;;;;;;;;;;;;2.54;83.50;100220.88;5009867;28;19932;-87
2022/03/15 18:36:19;;;;;;;;;;;;;;;2.57;83.18;100210.41;5010720;28;19932;-89
2022/03/15 18:38:48;;;;;;;;;;;;;;;2.53;83.11;100220.00;5024301;28;19922;-87
2022/03/15 18:41:14;;;;;;;;;;;;;;;2.53;83.28;100213.91;5008457;28;19929;-87
2022/03/15 18:43:41;;;;;;;;;;;;;;;2.59;83.19;100228.72;5009047;28;19928;-86
2022/03/15 18:48:50;;;;;;;;;;;;;;;2.56;82.89;100226.97;5010033;28;20387;-89
2022/03/15 18:51:15;;;;;;;;;;;;;;;2.58;82.95;100226.97;5008244;28;19921;-86
2022/03/15 18:53:42;;;;;;;;;;;;;;;2.60;82.97;100225.22;5009241;28;19929;-87
2022/03/15 18:56:07;;;;;;;;;;;;;;;2.60;83.11;100233.94;5009169;28;19926;-87
2022/03/15 18:58:34;;;;;;;;;;;;;;;2.61;82.97;100230.44;5009397;28;20396;-90
2022/03/15 19:01:01;;;;;;;;;;;;;;;2.63;83.04;100235.66;5010048;28;20423;-89
2022/03/15 19:03:27;;;;;;;;;;;;;;;2.65;83.01;100241.75;5010153;28;19918;-88
2022/03/15 19:05:53;;;;;;;;;;;;;;;2.66;83.15;100244.38;5009020;28;19929;-89
2022/03/15 19:08:21;;;;;;;;;;;;;;;2.69;83.21;100239.13;5009751;28;19924;-87
2022/03/15 19:10:48;;;;;;;;;;;;;;;2.66;83.08;100246.97;5007632;28;19971;-88
2022/03/15 19:13:14;;;;;;;;;;;;;;;2.68;83.01;100244.38;5008367;28;20518;-87
2022/03/15 19:15:44;;;;;;;;;;;;;;;2.68;82.84;100246.97;5010462;28;20413;-87
2022/03/15 19:18:14;;;;;;;;;;;;;;;2.67;82.69;100238.28;5010122;28;20026;-87
2022/03/15 19:20:40;;;;;;;;;;;;;;;2.70;82.37;100247.88;5005136;28;19929;-90
2022/03/15 19:23:07;;;;;;;;;;;;;;;2.71;82.00;100245.25;5008355;28;20292;-86
2022/03/15 19:25:37;;;;;;;;;;;;;;;2.70;81.68;100253.97;5009015;28;19929;-86
2022/03/15 19:28:03;;;;;;;;;;;;;;;2.72;81.55;100252.19;5006513;28;21383;-82
2022/03/15 19:30:29;;;;;;;;;;;;;;;2.73;81.42;100248.72;5005277;28;19917;-82
2022/03/15 19:32:56;;;;;;;;;;;;;;;2.72;81.33;100244.34;5011641;28;20011;-82
2022/03/15 19:35:21;;;;;;;;;;;;;;;2.75;81.59;100245.25;5027937;28;20308;-82
2022/03/15 19:37:46;;;;;;;;;;;;;;;2.75;81.77;100246.09;5014916;28;20012;-82
2022/03/15 19:40:13;;;;;;;;;;;;;;;2.80;81.90;100251.31;5013687;28;19924;-83
2022/03/15 19:42:40;;;;;;;;;;;;;;;2.73;81.87;100251.34;5011984;28;19959;-83
2022/03/15 19:45:06;;;;;;;;;;;;;;;2.76;82.14;100257.44;5014802;28;19929;-82
2022/03/15 19:47:33;;;;;;;;;;;;;;;2.78;82.08;100253.06;5008999;28;19918;-83
2022/03/15 19:49:58;;;;;;;;;;;;;;;2.78;81.90;100260.94;5015047;28;19921;-83
2022/03/15 19:52:24;;;;;;;;;;;;;;;2.76;81.60;100262.66;5014183;28;19921;-82
2022/03/15 19:54:50;;;;;;;;;;;;;;;2.77;81.34;100261.78;5013609;28;19924;-82
2022/03/15 19:57:16;;;;;;;;;;;;;;;2.77;81.09;100262.66;5013574;28;20012;-81
2022/03/15 19:59:42;;;;;;;;;;;;;;;2.80;80.97;100262.66;5013434;28;20048;-82
2022/03/15 20:02:12;;;;;;;;;;;;;;;2.78;80.75;100263.56;5012815;28;19926;-82
2022/03/15 20:04:38;;;;;;;;;;;;;;;2.79;80.65;100263.50;5011841;28;20391;-81
2022/03/15 20:07:03;;;;;;;;;;;;;;;2.79;80.34;100270.50;5013382;28;19925;-82
2022/03/15 20:09:28;;;;;;;;;;;;;;;2.80;80.21;100270.50;5013366;28;19918;-82
2022/03/15 20:11:57;;;;;;;;;;;;;;;2.81;80.19;100272.25;5013536;28;19971;-82